sensor_id;sensor_type;location;lat;lon;timestamp;temperature;humidity
16116;DHT22;8162;47.104;15.432;2023-04-05T12:33:09;3.90;38.40
16116;DHT22;8162;47.104;15.432;2023-04-05T12:36:10;15.50;23.30
16116;DHT22;8162;47.104;15.432;2023-04-05T12:39:15;18.10;22.10
16116;DHT22;8162;47.104;15.432;2023-04-05T12:45:17;20.20;21.40
16116;DHT22;8162;47.104;15.432;2023-04-05T12:48:23;26.00;18.00
16116;DHT22;8162;47.104;15.432;2023-04-05T12:51:25;27.10;17.20
16116;DHT22;8162;47.104;15.432;2023-04-05T13:00:30;28.50;16.00
16116;DHT22;8162;47.104;15.432;2023-04-05T13:03:32;28.50;15.30
16116;DHT22;8162;47.104;15.432;2023-04-05T13:12:36;26.80;16.10
16116;DHT22;8162;47.104;15.432;2023-04-05T13:18:38;22.80;18.20
16116;DHT22;8162;47.104;15.432;2023-04-05T13:21:38;23.90;18.30
16116;DHT22;8162;47.104;15.432;2023-04-05T13:24:39;25.00;18.40
16116;DHT22;8162;47.104;15.432;2023-04-05T13:27:40;25.80;18.20
16116;DHT22;8162;47.104;15.432;2023-04-05T13:30:40;26.10;17.60
16116;DHT22;8162;47.104;15.432;2023-04-05T13:33:41;25.90;17.50
16116;DHT22;8162;47.104;15.432;2023-04-05T13:36:42;26.30;17.00
16116;DHT22;8162;47.104;15.432;2023-04-05T13:39:43;26.20;17.40
16116;DHT22;8162;47.104;15.432;2023-04-05T13:42:44;26.30;17.50
16116;DHT22;8162;47.104;15.432;2023-04-05T13:45:45;26.70;16.90
16116;DHT22;8162;47.104;15.432;2023-04-05T13:48:46;27.20;16.80
16116;DHT22;8162;47.104;15.432;2023-04-05T13:51:46;26.50;17.30
16116;DHT22;8162;47.104;15.432;2023-04-05T13:54:47;25.60;17.80
16116;DHT22;8162;47.104;15.432;2023-04-05T13:57:48;25.10;17.10
16116;DHT22;8162;47.104;15.432;2023-04-05T14:06:51;25.60;16.60
16116;DHT22;8162;47.104;15.432;2023-04-05T14:09:52;26.90;17.30
16116;DHT22;8162;47.104;15.432;2023-04-05T14:12:53;27.30;17.20
16116;DHT22;8162;47.104;15.432;2023-04-05T14:15:54;27.90;17.20
16116;DHT22;8162;47.104;15.432;2023-04-05T14:18:55;27.90;17.10
16116;DHT22;8162;47.104;15.432;2023-04-05T14:21:56;27.60;16.80
16116;DHT22;8162;47.104;15.432;2023-04-05T14:24:56;27.50;16.50
16116;DHT22;8162;47.104;15.432;2023-04-05T14:27:57;25.90;16.70
16116;DHT22;8162;47.104;15.432;2023-04-05T14:43:04;25.20;16.90
16116;DHT22;8162;47.104;15.432;2023-04-05T14:46:05;20.50;19.70
16116;DHT22;8162;47.104;15.432;2023-04-05T14:49:06;20.10;19.50
16116;DHT22;8162;47.104;15.432;2023-04-05T14:52:07;20.30;20.30
16116;DHT22;8162;47.104;15.432;2023-04-05T14:55:08;20.30;20.70
16116;DHT22;8162;47.104;15.432;2023-04-05T14:58:08;20.50;20.00
16116;DHT22;8162;47.104;15.432;2023-04-05T15:01:09;20.60;19.90
16116;DHT22;8162;47.104;15.432;2023-04-05T15:04:10;20.90;20.70
16116;DHT22;8162;47.104;15.432;2023-04-05T15:07:11;21.20;19.60
16116;DHT22;8162;47.104;15.432;2023-04-05T15:22:17;21.50;19.80
16116;DHT22;8162;47.104;15.432;2023-04-05T15:25:19;22.80;19.40
16116;DHT22;8162;47.104;15.432;2023-04-05T15:28:20;23.50;18.70
16116;DHT22;8162;47.104;15.432;2023-04-05T15:31:21;23.40;18.60
16116;DHT22;8162;47.104;15.432;2023-04-05T15:34:22;24.10;18.00
16116;DHT22;8162;47.104;15.432;2023-04-05T15:37:22;24.60;17.90
16116;DHT22;8162;47.104;15.432;2023-04-05T15:52:29;24.40;18.10
16116;DHT22;8162;47.104;15.432;2023-04-05T16:01:32;19.80;20.40
